createdAt,value
2023-05-21T00:01:08.245Z,14.5
2023-05-21T00:03:10.234Z,14.4
2023-05-21T00:07:13.948Z,14.5
2023-05-21T00:09:18.982Z,14.2
2023-05-21T00:11:20.880Z,14.2
2023-05-21T00:13:22.831Z,14.1
2023-05-21T00:14:25.359Z,14.3
2023-05-21T00:18:29.164Z,14.3
2023-05-21T00:20:31.091Z,14.1
2023-05-21T00:22:36.166Z,14.2
2023-05-21T00:24:38.036Z,14.1
2023-05-21T00:28:41.995Z,14.1
2023-05-21T00:30:43.773Z,14.3
2023-05-21T00:34:47.575Z,14
2023-05-21T00:36:52.723Z,14.1
2023-05-21T00:40:56.554Z,14
2023-05-21T00:42:58.461Z,14
2023-05-21T00:45:00.382Z,14.1
2023-05-21T00:47:02.311Z,14.2
2023-05-21T00:49:04.176Z,14.1
2023-05-21T00:51:09.222Z,13.7
2023-05-21T00:53:11.134Z,13.9
2023-05-21T00:55:13.158Z,14
2023-05-21T00:57:15.044Z,14
2023-05-21T00:59:16.946Z,14.1
2023-05-21T01:01:18.884Z,14
2023-05-21T01:10:32.238Z,13.9
2023-05-21T01:12:34.151Z,14
2023-05-21T01:14:36.145Z,14.1
2023-05-21T01:20:45.030Z,13.8
2023-05-21T01:22:46.909Z,13.8
2023-05-21T01:26:50.741Z,13.6
2023-05-21T01:28:52.625Z,13.8
2023-05-21T01:30:54.534Z,13.6
2023-05-21T01:32:59.682Z,13.8
2023-05-21T01:39:05.320Z,13.7
2023-05-21T01:53:22.197Z,13.7
2023-05-21T01:55:24.198Z,13.5
2023-05-21T01:57:26.124Z,13.7
2023-05-21T02:05:37.248Z,13.4
2023-05-21T02:08:05.590Z,13.5
2023-05-21T02:12:09.542Z,13.6
2023-05-21T02:14:14.644Z,13.5
2023-05-21T02:22:22.502Z,13.6
2023-05-21T02:28:31.352Z,13.4
2023-05-21T02:57:05.386Z,13.6
2023-05-21T02:59:07.392Z,13.6
2023-05-21T03:02:11.897Z,13.5
2023-05-21T03:08:17.603Z,13.6
2023-05-21T03:10:22.879Z,13.4
2023-05-21T03:12:24.794Z,13.4
2023-05-21T03:14:26.716Z,13.7
2023-05-21T03:24:39.710Z,13.5
2023-05-21T03:26:41.747Z,13.6
2023-05-21T03:28:43.658Z,13.6
2023-05-21T03:30:45.556Z,13.6
2023-05-21T03:34:49.577Z,13.3
2023-05-21T03:57:17.317Z,13.4
2023-05-21T03:58:19.985Z,13.5
2023-05-21T04:00:21.994Z,13.6
2023-05-21T04:02:24.072Z,13.6
2023-05-21T04:04:25.916Z,13.5
2023-05-21T04:14:38.863Z,13.6
2023-05-21T04:16:40.768Z,13.6
2023-05-21T04:20:47.914Z,13.5
2023-05-21T04:22:49.942Z,13.6
2023-05-21T04:24:51.956Z,13.6
2023-05-21T04:26:54.000Z,13.5
2023-05-21T04:28:55.973Z,13.5
2023-05-21T04:30:57.999Z,13.6
2023-05-21T04:32:59.888Z,13.6
2023-05-21T04:35:05.013Z,13.6
2023-05-21T04:37:07.047Z,13.6
2023-05-21T04:39:08.920Z,13.6
2023-05-21T04:49:22.017Z,13.7
2023-05-21T04:51:24.017Z,13.7
2023-05-21T04:53:26.291Z,13.6
2023-05-21T04:58:34.042Z,13.7
2023-05-21T05:00:36.063Z,13.7
2023-05-21T05:02:41.204Z,13.8
2023-05-21T05:04:43.186Z,13.8
2023-05-21T05:06:45.167Z,13.9
2023-05-21T05:10:49.111Z,13.8
2023-05-21T05:12:51.118Z,13.7
2023-05-21T05:14:53.004Z,13.8
2023-05-21T05:16:58.213Z,13.8
2023-05-21T05:19:00.013Z,13.8
2023-05-21T05:25:05.695Z,13.8
2023-05-21T05:31:14.674Z,13.8
2023-05-21T05:37:20.573Z,14
2023-05-21T05:39:22.450Z,13.9
2023-05-21T05:41:24.389Z,14
2023-05-21T05:43:26.296Z,14.1
2023-05-21T05:47:33.371Z,14.1
2023-05-21T05:49:35.251Z,14.2
2023-05-21T05:52:04.085Z,14.1
2023-05-21T05:58:13.097Z,14.1
2023-05-21T06:12:29.750Z,14.2
2023-05-21T06:14:31.640Z,14.2
2023-05-21T06:20:37.375Z,14.4
2023-05-21T06:22:39.267Z,14.4
2023-05-21T06:24:41.185Z,14.3
2023-05-21T06:26:46.206Z,14.3
2023-05-21T06:28:48.125Z,14.3
2023-05-21T06:30:50.048Z,14.4
2023-05-21T06:32:52.070Z,14.3
2023-05-21T06:36:55.804Z,14.3
2023-05-21T06:38:57.644Z,14.4
2023-05-21T06:43:04.716Z,14.5
2023-05-21T06:45:06.675Z,14.5
2023-05-21T06:46:09.230Z,14.7
2023-05-21T06:48:11.090Z,14.6
2023-05-21T06:50:12.949Z,14.6
2023-05-21T06:52:14.955Z,14.5
2023-05-21T06:54:19.974Z,14.6
2023-05-21T06:56:21.892Z,14.6
2023-05-21T07:02:27.740Z,14.6
2023-05-21T07:04:29.514Z,14.9
2023-05-21T07:16:44.197Z,15
2023-05-21T07:18:45.964Z,15
2023-05-21T07:22:52.872Z,15
2023-05-21T07:24:54.788Z,14.9
2023-05-21T07:26:56.829Z,14.9
2023-05-21T07:28:58.555Z,15.2
2023-05-21T07:31:00.484Z,15.2
2023-05-21T07:33:02.557Z,15.2
2023-05-21T07:35:04.379Z,15.2
2023-05-21T07:37:09.449Z,15.4
2023-05-21T07:39:11.328Z,15.3
2023-05-21T07:41:13.222Z,15.2
2023-05-21T07:42:15.737Z,15.4
2023-05-21T08:04:42.894Z,16.4
2023-05-21T08:12:50.420Z,16.8
2023-05-21T08:14:52.297Z,17.2
2023-05-21T08:16:54.185Z,17
2023-05-21T08:18:59.241Z,16.9
2023-05-21T08:21:01.061Z,17
2023-05-21T08:23:02.977Z,16.8
2023-05-21T08:25:04.820Z,17.3
2023-05-21T08:27:06.671Z,17.1
2023-05-21T08:31:10.408Z,17.3
2023-05-21T08:33:15.485Z,17.4
2023-05-21T08:35:17.325Z,17.3
2023-05-21T08:38:21.696Z,17.8
2023-05-21T08:42:35.725Z,17.6
2023-05-21T08:52:37.893Z,18.1
2023-05-21T08:54:39.740Z,18.8
2023-05-21T08:56:41.600Z,18.8
2023-05-21T08:58:43.471Z,18.9
2023-05-21T09:04:52.168Z,18.7
2023-05-21T09:06:53.995Z,18.5
2023-05-21T09:08:55.895Z,18.4
2023-05-21T09:10:57.682Z,19.1
2023-05-21T09:15:04.520Z,19
2023-05-21T09:17:06.368Z,18.9
2023-05-21T09:19:08.208Z,18.7
2023-05-21T09:27:15.482Z,19.3
2023-05-21T09:29:20.485Z,19.3
2023-05-21T09:37:54.420Z,18.5
2023-05-21T09:42:01.196Z,19.3
2023-05-21T09:44:03.055Z,19.1
2023-05-21T09:46:04.900Z,19.2
2023-05-21T09:48:06.767Z,19.2
2023-05-21T09:54:12.134Z,19.1
2023-05-21T10:00:20.772Z,19.5
2023-05-21T10:04:24.440Z,19.3
2023-05-21T10:06:26.231Z,19.4
2023-05-21T10:08:28.025Z,19.3
2023-05-21T10:10:33.025Z,19.7
2023-05-21T10:12:34.849Z,19.3
2023-05-21T10:14:36.671Z,19.3
2023-05-21T10:16:38.525Z,19.2
2023-05-21T10:20:42.095Z,19.3
2023-05-21T10:22:43.919Z,19.1
2023-05-21T10:24:48.910Z,19.7
2023-05-21T10:26:50.723Z,19.5
2023-05-21T10:29:55.027Z,19.6
2023-05-21T10:36:00.492Z,19.5
2023-05-21T10:40:07.299Z,20.4
2023-05-21T10:42:09.113Z,19.9
2023-05-21T10:44:10.931Z,20.4
2023-05-21T10:46:12.867Z,19.6
2023-05-21T10:48:14.614Z,19.5
2023-05-21T10:50:17.924Z,19.8
2023-05-21T10:52:22.849Z,19.7
2023-05-21T10:54:24.654Z,20
2023-05-21T10:56:26.504Z,19.9
2023-05-21T10:58:29.859Z,20.3
2023-05-21T11:02:31.965Z,19.9
2023-05-21T11:04:33.706Z,20.1
2023-05-21T11:06:38.682Z,20.3
2023-05-21T11:08:40.469Z,20.5
2023-05-21T11:14:45.856Z,20.3
2023-05-21T11:20:54.397Z,19.9
2023-05-21T11:22:56.176Z,20.5
2023-05-21T11:24:57.981Z,20.3
2023-05-21T11:26:00.458Z,20.6
2023-05-21T11:28:02.254Z,20.4
2023-05-21T11:30:04.059Z,20.4
2023-05-21T11:34:10.788Z,20.9
2023-05-21T11:38:14.384Z,20.8
2023-05-21T11:42:17.965Z,21
2023-05-21T11:44:19.782Z,20.7
2023-05-21T11:48:27.998Z,20.9
2023-05-21T12:00:37.474Z,21.6
2023-05-21T12:02:42.264Z,21.5
2023-05-21T12:22:03.730Z,21.4
2023-05-21T12:24:05.505Z,21.8
2023-05-21T12:26:07.261Z,21.7
2023-05-21T12:28:09.026Z,21.4
2023-05-21T12:30:13.950Z,21.7
2023-05-21T12:32:15.723Z,21.8
2023-05-21T12:34:17.485Z,21.7
2023-05-21T12:38:21.020Z,21.7
2023-05-21T12:54:38.289Z,22.4
2023-05-21T13:00:46.764Z,22.2
2023-05-21T13:02:48.587Z,21.9
2023-05-21T13:04:50.286Z,22.1
2023-05-21T13:06:52.048Z,21.9
2023-05-21T13:10:55.542Z,22.2
2023-05-21T13:19:32.500Z,21.7
2023-05-21T13:21:34.159Z,22.1
2023-05-21T13:27:42.629Z,22.2
2023-05-21T13:29:44.376Z,21.8
2023-05-21T13:31:46.121Z,22
2023-05-21T13:33:47.958Z,22.1
2023-05-21T13:35:49.658Z,22.3
2023-05-21T13:37:51.414Z,22.5
2023-05-21T13:39:56.353Z,22.7
2023-05-21T13:41:58.082Z,22.8
2023-05-21T13:43:59.842Z,22.6
2023-05-21T13:46:01.601Z,23.2
2023-05-21T13:48:03.455Z,23.3
2023-05-21T13:50:05.134Z,23.1
2023-05-21T13:52:06.899Z,23.6
2023-05-21T13:54:11.817Z,23.6
2023-05-21T13:56:13.555Z,23.6
2023-05-21T13:58:15.272Z,23.6
2023-05-21T14:00:17.051Z,23.7
2023-05-21T14:02:18.814Z,23.5
2023-05-21T14:06:22.229Z,23.1
2023-05-21T14:08:27.153Z,22.8
2023-05-21T14:10:28.898Z,23.3
2023-05-21T14:12:30.614Z,23.4
2023-05-21T14:15:34.990Z,22.9
2023-05-21T14:21:43.193Z,23.5
2023-05-21T14:25:46.652Z,23.5
2023-05-21T14:27:48.368Z,23.5
2023-05-21T14:29:50.104Z,24.3
2023-05-21T14:33:53.526Z,24.3
2023-05-21T14:35:58.403Z,24.2
2023-05-21T14:38:00.142Z,24.6
2023-05-21T14:40:01.856Z,24.8
2023-05-21T14:42:03.524Z,24.8
2023-05-21T14:44:05.219Z,24.7
2023-05-21T14:46:06.985Z,23.9
2023-05-21T14:48:08.769Z,23.4
2023-05-21T14:50:13.600Z,24.4
2023-05-21T14:52:15.164Z,24.8
2023-05-21T14:54:16.837Z,24.5
2023-05-21T14:58:20.197Z,24.2
2023-05-21T15:00:21.863Z,24
2023-05-21T15:02:23.647Z,24.8
2023-05-21T15:04:28.411Z,25.8
2023-05-21T15:06:30.092Z,25.4
2023-05-21T15:08:31.766Z,25.3
2023-05-21T15:09:34.190Z,24.2
2023-05-21T15:17:44.113Z,25.2
2023-05-21T15:19:45.783Z,25.1
2023-05-21T15:25:50.844Z,25.3
2023-05-21T15:29:54.202Z,25.6
2023-05-21T15:31:59.085Z,26.2
2023-05-21T15:34:00.754Z,26.1
2023-05-21T15:36:02.491Z,25.9
2023-05-21T15:40:05.788Z,26.2
2023-05-21T15:42:07.466Z,26.4
2023-05-21T15:44:09.130Z,26.5
2023-05-21T15:48:15.676Z,26.6
2023-05-21T15:50:17.364Z,26.7
2023-05-21T15:52:19.009Z,26.1
2023-05-21T15:54:20.677Z,26.6
2023-05-21T15:56:22.374Z,27.1
2023-05-21T15:58:24.035Z,27
2023-05-21T16:00:28.876Z,27.4
2023-05-21T16:02:30.595Z,27.5
2023-05-21T16:04:32.184Z,27.2
2023-05-21T16:05:34.767Z,26.2
2023-05-21T16:17:47.881Z,23.8
2023-05-21T16:19:49.452Z,23.8
2023-05-21T16:21:51.106Z,24
2023-05-21T16:23:52.770Z,23.8
2023-05-21T16:25:54.460Z,24
2023-05-21T16:27:59.305Z,24.1
2023-05-21T16:30:00.983Z,24.1
2023-05-21T16:32:02.776Z,23.8
2023-05-21T16:34:04.338Z,23.7
2023-05-21T16:36:06.041Z,23.6
2023-05-21T16:38:07.719Z,23.9
2023-05-21T16:40:09.412Z,23.9
2023-05-21T16:42:15.795Z,23.8
2023-05-21T16:46:19.295Z,23.8
2023-05-21T16:48:20.918Z,24.1
2023-05-21T16:50:22.702Z,23.9
2023-05-21T16:52:24.363Z,24
2023-05-21T16:56:30.957Z,23.8
2023-05-21T16:58:32.687Z,23.8
2023-05-21T17:00:34.400Z,23.9
2023-05-21T17:03:02.796Z,23.8
2023-05-21T17:05:04.427Z,23.8
2023-05-21T17:07:06.158Z,23.6
2023-05-21T17:09:11.064Z,23.5
2023-05-21T17:15:16.225Z,23.7
2023-05-21T17:17:17.984Z,23.6
2023-05-21T17:19:19.712Z,23.5
2023-05-21T17:27:29.805Z,23.4
2023-05-21T17:29:31.560Z,23.6
2023-05-21T17:31:33.309Z,23.6
2023-05-21T17:33:35.010Z,23.7
2023-05-21T17:35:36.879Z,23.6
2023-05-21T17:37:41.681Z,23.4
2023-05-21T17:39:43.402Z,23.4
2023-05-21T17:49:52.093Z,23.3
2023-05-21T17:51:56.978Z,23.5
2023-05-21T17:56:00.442Z,23.6
2023-05-21T17:57:02.899Z,23.3
2023-05-21T17:59:04.642Z,23.2
2023-05-21T18:01:06.433Z,23.3
2023-05-21T18:03:08.227Z,23.2
2023-05-21T18:13:20.020Z,22.8
2023-05-21T18:37:48.479Z,22.4
2023-05-21T18:42:01.634Z,22
2023-05-21T18:45:55.541Z,22
2023-05-21T18:48:00.504Z,22
2023-05-21T18:50:02.232Z,21.9
2023-05-21T18:52:04.047Z,22
2023-05-21T18:53:06.481Z,21.8
2023-05-21T18:55:08.250Z,21.8
2023-05-21T18:57:10.008Z,21.9
2023-05-21T18:59:11.796Z,21.9
2023-05-21T19:01:16.762Z,21.9
2023-05-21T19:03:18.510Z,21.8
2023-05-21T19:05:20.312Z,21.4
2023-05-21T19:07:22.062Z,21.8
2023-05-21T19:09:23.888Z,21.6
2023-05-21T19:11:26.889Z,21.6
2023-05-21T19:13:27.387Z,21.5
2023-05-21T19:17:34.123Z,21.2
2023-05-21T19:19:36.101Z,21.3
2023-05-21T19:21:37.680Z,21.2
2023-05-21T19:23:51.949Z,21.4
2023-05-21T19:25:41.265Z,21.2
2023-05-21T19:27:43.044Z,21.1
2023-05-21T19:29:48.006Z,21.1
2023-05-21T19:31:49.814Z,20.9
2023-05-21T19:39:56.949Z,20.7
2023-05-21T19:41:58.741Z,20.7
2023-05-21T19:44:03.705Z,20.6
2023-05-21T19:49:09.775Z,21
2023-05-21T19:51:11.592Z,20.4
2023-05-21T19:53:13.362Z,20.5
2023-05-21T19:55:15.180Z,20.2
2023-05-21T19:57:20.151Z,20.4
2023-05-21T19:59:21.946Z,20.5
2023-05-21T20:01:23.880Z,20.6
2023-05-21T20:03:25.593Z,20.4
2023-05-21T20:05:27.347Z,20.3
2023-05-21T20:07:29.159Z,20.3
2023-05-21T20:09:30.975Z,20.3
2023-05-21T20:11:35.935Z,20.2
2023-05-21T20:23:46.736Z,20.3
2023-05-21T20:25:51.686Z,20.1
2023-05-21T20:27:53.514Z,20.1
2023-05-21T20:29:55.296Z,19.9
2023-05-21T20:31:57.078Z,20
2023-05-21T20:36:00.705Z,19.1
2023-05-21T20:38:02.489Z,19.5
2023-05-21T20:40:07.492Z,19.3
2023-05-21T20:42:09.263Z,19.3
2023-05-21T20:44:11.057Z,19.4
2023-05-21T20:46:39.608Z,18.9
2023-05-21T20:48:41.283Z,19.3
2023-05-21T20:50:43.085Z,18.9
2023-05-21T20:52:48.050Z,18.8
2023-05-21T20:54:49.852Z,19
2023-05-21T20:58:53.474Z,18.8
2023-05-21T21:00:55.332Z,18.5
2023-05-21T21:02:57.294Z,18.8
2023-05-21T21:04:58.922Z,18.7
2023-05-21T21:07:03.912Z,18.4
2023-05-21T21:09:05.735Z,18.5
2023-05-21T21:11:07.512Z,18.6
2023-05-21T21:13:09.353Z,18.4
2023-05-21T21:15:11.187Z,18.5
2023-05-21T21:17:12.978Z,18.4
2023-05-21T21:21:19.792Z,18.3
2023-05-21T21:23:21.625Z,18.3
2023-05-21T21:25:23.484Z,18.3
2023-05-21T21:27:25.285Z,18.3
2023-05-21T21:35:35.792Z,18.1
2023-05-21T21:37:37.637Z,18.1
2023-05-21T21:39:39.442Z,18.1
2023-05-21T21:40:41.934Z,17.9
2023-05-21T21:44:45.608Z,17.9
2023-05-21T21:46:47.500Z,18
2023-05-21T21:48:52.439Z,18
2023-05-21T21:50:54.255Z,17.9
2023-05-21T22:01:03.505Z,18
2023-05-21T22:11:15.806Z,17.6
2023-05-21T22:13:17.672Z,17.6
2023-05-21T22:15:19.544Z,17.8
2023-05-21T22:17:24.537Z,17.6
2023-05-21T22:19:26.486Z,17.7
2023-05-21T22:21:28.235Z,17.7
2023-05-21T22:23:30.058Z,17.6
2023-05-21T22:25:31.910Z,17.6
2023-05-21T22:27:33.761Z,17.6
2023-05-21T22:29:35.611Z,17.3
2023-05-21T22:31:42.142Z,17.7
2023-05-21T22:33:43.962Z,17.4
2023-05-21T22:35:45.828Z,17.9
2023-05-21T22:36:48.315Z,17.6
2023-05-21T22:38:50.155Z,17.7
2023-05-21T22:42:53.843Z,17.5
2023-05-21T22:44:58.865Z,17.4
2023-05-21T22:47:01.146Z,17.5
2023-05-21T22:49:02.556Z,17.4
2023-05-21T22:55:08.112Z,17.3
2023-05-21T22:57:09.968Z,17.3
2023-05-21T22:59:14.997Z,17.3
2023-05-21T23:01:16.882Z,17.4
2023-05-21T23:03:18.689Z,17.3
2023-05-21T23:07:22.426Z,16.9
2023-05-21T23:09:24.258Z,17.4
2023-05-21T23:11:26.122Z,17.3
2023-05-21T23:13:31.157Z,17.3
2023-05-21T23:15:32.990Z,17.4
2023-05-21T23:17:34.875Z,17.2
2023-05-21T23:19:36.786Z,17
2023-05-21T23:21:38.602Z,17.4
2023-05-21T23:23:40.455Z,17.3
2023-05-21T23:25:42.339Z,17.4
2023-05-21T23:27:47.318Z,17.2
2023-05-21T23:29:49.177Z,17.3
2023-05-21T23:31:51.097Z,17.1
2023-05-21T23:32:53.621Z,17.3
2023-05-21T23:41:04.161Z,17.1
2023-05-21T23:43:06.042Z,16.8
2023-05-21T23:45:07.896Z,17.2
2023-05-21T23:55:20.351Z,17
2023-05-21T23:57:22.219Z,17.2
2023-05-21T23:59:24.043Z,17
